Time;durP1;ratioP1;P1;durP2;ratioP2;P2;SDS_P1;SDS_P2;PMS_P1;PMS_P2;Temp;Humidity;BMP_temperature;BMP_pressure;BME280_temperature;BME280_humidity;BME280_pressure;Samples;Min_cycle;Max_cycle;Signal;HPM_P1;HPM_P2
2023/05/29 00:02:22;;;;;;;5.30;3.33;;;16.80;73.30;;;;;;10592458;28;20224;-74
2023/05/29 00:07:26;;;;;;;7.33;3.67;;;16.70;73.90;;;;;;10598149;28;20213;-72
2023/05/29 00:12:26;;;;;;;5.77;3.47;;;16.70;74.50;;;;;;10574502;28;20233;-73
2023/05/29 00:17:33;;;;;;;5.97;3.73;;;16.60;75.20;;;;;;10591934;28;20643;-73
2023/05/29 00:22:36;;;;;;;8.07;3.37;;;16.40;75.60;;;;;;10583699;28;20275;-73
2023/05/29 00:27:37;;;;;;;6.23;3.77;;;16.30;76.10;;;;;;10595697;28;20227;-73
2023/05/29 00:32:38;;;;;;;5.33;3.57;;;16.30;76.40;;;;;;10576548;28;20538;-73
2023/05/29 00:37:38;;;;;;;7.33;3.50;;;16.20;76.80;;;;;;10591317;28;20251;-73
2023/05/29 00:42:42;;;;;;;7.63;3.77;;;16.10;77.30;;;;;;10579212;28;20220;-73
2023/05/29 00:47:42;;;;;;;5.27;3.60;;;16.10;77.60;;;;;;10574968;28;20275;-74
2023/05/29 00:52:45;;;;;;;8.13;3.37;;;16.00;78.00;;;;;;10600707;27;20556;-73
2023/05/29 00:57:47;;;;;;;6.07;3.37;;;16.00;78.40;;;;;;10586710;27;20695;-74
2023/05/29 01:02:48;;;;;;;4.97;3.43;;;15.90;78.70;;;;;;10586266;27;20229;-73
2023/05/29 01:07:50;;;;;;;6.50;3.50;;;15.90;78.80;;;;;;10578059;27;20228;-73
2023/05/29 01:12:58;;;;;;;6.27;3.43;;;15.80;78.90;;;;;;10581336;27;20225;-73
2023/05/29 01:18:21;;;;;;;7.77;3.53;;;15.80;79.00;;;;;;10578640;27;20229;-74
2023/05/29 01:23:58;;;;;;;4.43;3.30;;;15.80;79.20;;;;;;10597417;27;20225;-74
2023/05/29 01:29:01;;;;;;;7.27;3.60;;;15.70;79.50;;;;;;10578732;27;20213;-73
2023/05/29 01:34:02;;;;;;;8.10;3.70;;;15.60;80.30;;;;;;10586664;27;20222;-73
2023/05/29 01:39:07;;;;;;;8.00;3.80;;;15.50;81.00;;;;;;10601432;27;20216;-73
2023/05/29 01:44:09;;;;;;;5.03;3.27;;;15.50;81.20;;;;;;10603443;27;20217;-73
2023/05/29 01:49:11;;;;;;;9.43;3.70;;;15.40;81.60;;;;;;10595802;27;20241;-74
2023/05/29 01:54:15;;;;;;;6.50;3.53;;;15.40;82.10;;;;;;10592248;27;20718;-74
2023/05/29 01:59:16;;;;;;;6.47;3.67;;;15.30;82.30;;;;;;10603994;27;20261;-74
2023/05/29 02:04:16;;;;;;;6.73;3.73;;;15.20;82.70;;;;;;10584810;27;20695;-74
2023/05/29 02:09:17;;;;;;;7.50;3.73;;;15.30;83.00;;;;;;10577229;27;20233;-74
2023/05/29 02:14:18;;;;;;;8.60;3.60;;;15.20;83.20;;;;;;10602531;27;20696;-73
2023/05/29 02:19:19;;;;;;;6.60;3.60;;;15.20;83.70;;;;;;10590795;27;20217;-74
2023/05/29 02:24:19;;;;;;;6.80;3.90;;;15.20;84.00;;;;;;10600087;27;20244;-73
2023/05/29 02:29:20;;;;;;;8.60;3.67;;;15.00;84.60;;;;;;10593615;27;20220;-73
2023/05/29 02:34:24;;;;;;;6.43;3.50;;;14.90;85.60;;;;;;10585508;27;20240;-73
2023/05/29 02:39:24;;;;;;;6.40;3.70;;;14.80;86.10;;;;;;10589660;27;20579;-73
2023/05/29 02:44:25;;;;;;;4.87;3.57;;;14.80;86.20;;;;;;10600969;27;20220;-72
2023/05/29 02:49:25;;;;;;;10.17;4.10;;;14.70;86.40;;;;;;10593651;27;20251;-73
2023/05/29 02:54:26;;;;;;;8.43;3.90;;;14.70;86.80;;;;;;10599969;27;20756;-73
2023/05/29 02:59:27;;;;;;;4.73;3.37;;;14.70;87.10;;;;;;10591718;27;20230;-73
2023/05/29 03:04:27;;;;;;;5.90;3.23;;;14.60;87.60;;;;;;10579467;27;20221;-73
2023/05/29 03:09:28;;;;;;;5.40;3.20;;;14.50;88.50;;;;;;10574962;27;20214;-74
2023/05/29 03:14:28;;;;;;;6.30;3.27;;;14.40;89.40;;;;;;10597043;27;20247;-74
2023/05/29 03:19:29;;;;;;;7.17;3.90;;;14.30;90.00;;;;;;10574395;27;20214;-74
2023/05/29 03:24:31;;;;;;;7.77;3.93;;;14.30;90.30;;;;;;10600731;27;20290;-74
2023/05/29 03:29:35;;;;;;;5.47;3.10;;;14.20;90.70;;;;;;10580885;27;20313;-74
2023/05/29 03:34:36;;;;;;;4.00;3.20;;;14.30;91.10;;;;;;10591479;27;20245;-74
2023/05/29 03:39:36;;;;;;;8.07;3.60;;;14.30;91.30;;;;;;10571319;27;20257;-73
2023/05/29 03:44:37;;;;;;;8.20;3.80;;;14.30;91.60;;;;;;10583328;27;20233;-73
2023/05/29 03:49:37;;;;;;;5.67;3.70;;;14.40;91.80;;;;;;10576533;27;20274;-73
2023/05/29 03:54:38;;;;;;;5.63;3.70;;;14.40;92.30;;;;;;10595497;27;20221;-74
2023/05/29 03:59:39;;;;;;;5.13;3.63;;;14.50;92.10;;;;;;10593730;27;20644;-74
2023/05/29 04:04:42;;;;;;;6.83;3.67;;;14.60;92.10;;;;;;10580176;28;20305;-74
2023/05/29 04:09:46;;;;;;;5.57;3.63;;;14.70;92.00;;;;;;10576545;28;20346;-74
2023/05/29 04:14:46;;;;;;;6.07;3.40;;;14.80;91.80;;;;;;10584853;28;20573;-73
2023/05/29 04:19:47;;;;;;;7.27;3.60;;;14.90;92.00;;;;;;10582895;28;20222;-74
2023/05/29 04:24:48;;;;;;;6.13;3.87;;;14.90;92.20;;;;;;10598730;27;20802;-73
2023/05/29 04:29:48;;;;;;;7.53;3.80;;;14.90;92.30;;;;;;10586108;27;20225;-71
2023/05/29 04:34:49;;;;;;;6.43;3.47;;;14.90;92.40;;;;;;10587604;27;20254;-71
2023/05/29 04:39:51;;;;;;;5.77;3.50;;;15.00;92.50;;;;;;10590987;27;20635;-72
2023/05/29 04:44:53;;;;;;;6.07;3.40;;;15.60;91.70;;;;;;10600309;27;20231;-70
2023/05/29 04:49:54;;;;;;;6.77;3.50;;;15.80;90.90;;;;;;10602182;27;20243;-72
2023/05/29 04:54:56;;;;;;;6.63;3.73;;;15.60;91.40;;;;;;10603129;27;20282;-71
2023/05/29 04:59:57;;;;;;;6.97;4.03;;;15.80;91.60;;;;;;10598651;27;20247;-71
2023/05/29 05:04:57;;;;;;;6.80;3.43;;;17.80;86.40;;;;;;10602495;27;20224;-71
2023/05/29 05:09:58;;;;;;;7.63;3.87;;;19.10;79.60;;;;;;10579629;27;20214;-72
2023/05/29 05:14:58;;;;;;;10.07;4.20;;;18.90;78.80;;;;;;10602209;27;20277;-72
2023/05/29 05:19:59;;;;;;;7.73;4.10;;;17.90;82.60;;;;;;10604335;27;20680;-72
2023/05/29 05:25:00;;;;;;;7.23;3.53;;;18.00;84.40;;;;;;10579004;27;20446;-72
2023/05/29 05:30:02;;;;;;;7.57;3.60;;;19.50;78.90;;;;;;10601720;27;20221;-69
2023/05/29 05:35:03;;;;;;;6.10;3.40;;;20.60;74.00;;;;;;10582103;27;20258;-71
2023/05/29 05:40:08;;;;;;;8.17;4.00;;;21.60;69.60;;;;;;10602400;27;20214;-71
2023/05/29 05:45:09;;;;;;;8.63;3.93;;;21.80;68.30;;;;;;10603044;27;20701;-70
2023/05/29 05:50:10;;;;;;;7.17;3.57;;;22.10;66.70;;;;;;10584622;27;20554;-72
2023/05/29 05:55:11;;;;;;;6.40;3.90;;;22.20;66.00;;;;;;10596911;27;20213;-72
2023/05/29 06:00:12;;;;;;;8.27;3.30;;;22.50;65.00;;;;;;10604328;27;20178;-71
2023/05/29 06:05:13;;;;;;;6.47;3.73;;;22.80;63.40;;;;;;10603269;27;20687;-71
2023/05/29 06:10:14;;;;;;;6.23;3.60;;;23.20;62.50;;;;;;10582804;27;20190;-71
2023/05/29 06:15:14;;;;;;;7.33;3.47;;;23.70;60.30;;;;;;10595761;27;20295;-71
2023/05/29 06:20:15;;;;;;;8.17;3.50;;;23.90;60.10;;;;;;10600975;27;20177;-71
2023/05/29 06:25:19;;;;;;;6.20;3.60;;;25.00;57.60;;;;;;10599195;27;20193;-71
2023/05/29 06:30:20;;;;;;;7.37;4.07;;;24.50;57.30;;;;;;10594225;27;20201;-71
2023/05/29 06:35:20;;;;;;;7.87;3.63;;;24.60;56.90;;;;;;10585040;27;20202;-72
2023/05/29 06:40:21;;;;;;;7.17;3.60;;;24.40;56.90;;;;;;10592212;27;20212;-73
2023/05/29 06:45:22;;;;;;;7.53;3.60;;;24.40;56.80;;;;;;10599365;27;20191;-71
2023/05/29 06:50:22;;;;;;;6.10;3.40;;;24.80;56.60;;;;;;10574658;27;20281;-72
2023/05/29 06:55:23;;;;;;;5.17;3.30;;;25.10;55.20;;;;;;10598689;27;20204;-72
2023/05/29 07:00:27;;;;;;;5.77;3.30;;;26.30;53.60;;;;;;10593220;27;20286;-71
2023/05/29 07:05:27;;;;;;;9.97;3.77;;;26.50;52.00;;;;;;10581065;27;20216;-70
2023/05/29 07:10:28;;;;;;;4.17;3.13;;;26.90;51.90;;;;;;10575356;27;20216;-71
2023/05/29 07:15:28;;;;;;;4.40;3.27;;;27.60;50.30;;;;;;10599890;27;20222;-72
2023/05/29 07:20:29;;;;;;;7.27;3.67;;;27.60;49.30;;;;;;10597897;27;20201;-71
2023/05/29 07:25:30;;;;;;;4.70;3.03;;;27.10;50.50;;;;;;10581335;27;20220;-72
2023/05/29 07:30:31;;;;;;;4.67;3.10;;;27.60;49.60;;;;;;10581478;27;20270;-72
2023/05/29 07:35:33;;;;;;;4.47;3.30;;;28.70;47.70;;;;;;10577586;27;20260;-72
2023/05/29 07:40:33;;;;;;;4.17;3.17;;;29.20;46.60;;;;;;10575107;27;20217;-72
2023/05/29 07:45:34;;;;;;;5.93;3.73;;;29.10;46.00;;;;;;10585716;27;20688;-73
2023/05/29 07:50:36;;;;;;;3.87;3.20;;;30.10;45.10;;;;;;10576769;27;20229;-71
2023/05/29 07:55:37;;;;;;;4.37;3.20;;;30.10;45.20;;;;;;10598476;27;20232;-72
2023/05/29 08:00:38;;;;;;;6.53;3.60;;;29.90;44.70;;;;;;10578605;27;20221;-72
2023/05/29 08:05:39;;;;;;;5.87;3.13;;;30.30;43.60;;;;;;10589907;28;20213;-71
2023/05/29 08:10:40;;;;;;;3.60;3.00;;;30.40;43.00;;;;;;10573876;28;20213;-71
2023/05/29 08:15:40;;;;;;;5.67;3.20;;;30.90;43.60;;;;;;10587830;28;20224;-71
2023/05/29 08:20:42;;;;;;;5.63;3.53;;;31.20;42.70;;;;;;10599841;28;20304;-73
2023/05/29 08:25:43;;;;;;;6.60;2.90;;;30.90;42.90;;;;;;10570652;28;20224;-72
2023/05/29 08:30:43;;;;;;;5.57;3.30;;;32.80;41.40;;;;;;10594299;28;20214;-71
2023/05/29 08:35:45;;;;;;;3.50;3.20;;;34.00;39.30;;;;;;10584007;28;20228;-73
2023/05/29 08:40:47;;;;;;;4.63;2.97;;;33.40;39.50;;;;;;10579139;28;20218;-72
2023/05/29 08:46:02;;;;;;;4.77;3.10;;;32.50;39.10;;;;;;10598156;28;20719;-73
2023/05/29 08:51:09;;;;;;;4.73;3.17;;;32.70;40.20;;;;;;10579209;28;20304;-73
2023/05/29 08:56:10;;;;;;;4.60;2.83;;;33.30;39.80;;;;;;10571815;28;20316;-72
2023/05/29 09:01:11;;;;;;;5.80;2.83;;;34.30;39.00;;;;;;10596670;28;20736;-73
2023/05/29 09:06:12;;;;;;;5.13;3.17;;;34.20;36.30;;;;;;10579513;28;20290;-72
2023/05/29 09:11:12;;;;;;;4.40;2.90;;;34.30;38.20;;;;;;10607789;27;20231;-72
2023/05/29 09:16:23;;;;;;;6.70;3.13;;;34.10;36.30;;;;;;10596202;27;20233;-72
2023/05/29 09:21:33;;;;;;;4.87;3.10;;;33.50;37.10;;;;;;10595446;27;20226;-71
2023/05/29 09:26:34;;;;;;;4.53;2.70;;;34.20;37.50;;;;;;10581404;27;20229;-73
2023/05/29 09:31:45;;;;;;;4.90;3.40;;;34.40;36.50;;;;;;10577301;27;20304;-72
2023/05/29 09:36:49;;;;;;;3.47;2.80;;;34.10;36.20;;;;;;10591970;27;20230;-72
2023/05/29 09:41:49;;;;;;;4.83;3.10;;;34.40;35.90;;;;;;10581609;27;20750;-73
2023/05/29 09:46:50;;;;;;;4.20;2.90;;;34.60;35.90;;;;;;10585386;27;20217;-71
2023/05/29 09:51:54;;;;;;;3.43;3.00;;;34.80;36.30;;;;;;10585591;27;20217;-72
2023/05/29 09:56:56;;;;;;;6.63;3.17;;;34.60;35.60;;;;;;10604543;27;20228;-72
2023/05/29 10:02:04;;;;;;;4.13;3.40;;;34.20;35.80;;;;;;10593164;27;20344;-74
2023/05/29 10:07:10;;;;;;;4.73;3.03;;;35.80;35.70;;;;;;10600348;27;20209;-72
2023/05/29 10:12:12;;;;;;;3.23;2.87;;;36.10;33.80;;;;;;10602892;27;20217;-72
2023/05/29 10:17:15;;;;;;;4.40;3.03;;;36.50;34.50;;;;;;10593991;27;20240;-72
2023/05/29 10:22:21;;;;;;;4.70;3.33;;;36.40;35.90;;;;;;10596206;27;20214;-72
2023/05/29 10:27:22;;;;;;;5.23;3.53;;;38.10;32.70;;;;;;10583211;27;20280;-73
2023/05/29 10:32:56;;;;;;;6.07;3.60;;;37.60;32.80;;;;;;10597586;27;20271;-71
2023/05/29 10:38:02;;;;;;;4.03;3.43;;;37.40;32.80;;;;;;10581210;27;20221;-72
2023/05/29 10:43:04;;;;;;;4.73;3.00;;;38.30;32.00;;;;;;10593616;27;20558;-73
2023/05/29 10:48:10;;;;;;;4.60;3.37;;;40.50;30.10;;;;;;10580448;27;20648;-72
2023/05/29 10:53:22;;;;;;;3.90;3.27;;;39.40;30.20;;;;;;10574822;27;20305;-72
2023/05/29 10:58:24;;;;;;;5.17;3.20;;;38.00;31.20;;;;;;10593605;27;20230;-73
2023/05/29 11:03:31;;;;;;;5.40;3.10;;;37.30;32.80;;;;;;10580787;27;20218;-73
2023/05/29 11:08:46;;;;;;;3.13;2.70;;;37.10;33.70;;;;;;10599111;27;20901;-72
2023/05/29 11:13:55;;;;;;;5.83;3.17;;;37.50;32.70;;;;;;10596053;27;20225;-72
2023/05/29 11:19:07;;;;;;;4.93;3.07;;;38.10;32.90;;;;;;10600934;27;20213;-72
2023/05/29 11:24:13;;;;;;;8.10;3.40;;;37.20;31.80;;;;;;10591888;27;20593;-71
2023/05/29 11:29:14;;;;;;;5.27;3.40;;;36.50;32.30;;;;;;10604023;27;20304;-72
2023/05/29 11:34:15;;;;;;;5.90;3.00;;;35.90;32.40;;;;;;10572924;27;20710;-71
2023/05/29 11:39:15;;;;;;;3.97;3.00;;;34.80;33.00;;;;;;10574940;27;20224;-72
2023/05/29 11:44:17;;;;;;;5.30;3.93;;;33.00;35.30;;;;;;10572784;27;20300;-71
2023/05/29 11:49:28;;;;;;;4.40;3.50;;;31.30;37.40;;;;;;10580819;27;20217;-70
2023/05/29 11:54:29;;;;;;;4.73;3.40;;;30.30;39.90;;;;;;10599490;27;20209;-72
2023/05/29 11:59:29;;;;;;;5.67;4.10;;;28.80;39.10;;;;;;10605497;27;20221;-72
2023/05/29 12:04:30;;;;;;;7.13;3.30;;;28.40;43.00;;;;;;10598584;27;20787;-71
2023/05/29 12:09:31;;;;;;;6.87;3.70;;;27.80;45.00;;;;;;10578157;28;20575;-72
2023/05/29 12:14:33;;;;;;;5.20;3.40;;;27.90;46.10;;;;;;10592198;28;20225;-72
2023/05/29 12:19:33;;;;;;;5.73;3.40;;;28.10;45.80;;;;;;10593986;28;20222;-70
2023/05/29 12:24:35;;;;;;;4.87;3.40;;;27.60;45.50;;;;;;10576948;28;20221;-71
2023/05/29 12:30:06;;;;;;;7.27;3.80;;;27.40;46.60;;;;;;10578510;28;20301;-74
2023/05/29 12:35:26;;;;;;;4.57;3.70;;;27.40;44.70;;;;;;10582080;28;20614;-71
2023/05/29 12:40:28;;;;;;;4.80;3.30;;;27.10;43.80;;;;;;10577943;28;20574;-70
2023/05/29 12:45:30;;;;;;;7.03;3.10;;;27.10;43.20;;;;;;10574599;27;20893;-71
2023/05/29 12:50:40;;;;;;;5.33;3.87;;;27.40;41.70;;;;;;10592141;27;20233;-72
2023/05/29 12:55:43;;;;;;;3.67;3.13;;;27.10;42.20;;;;;;10582800;27;20224;-71
2023/05/29 13:00:45;;;;;;;4.30;3.20;;;26.80;42.40;;;;;;10602133;27;20214;-71
2023/05/29 13:05:46;;;;;;;5.50;3.20;;;27.00;42.20;;;;;;10578652;27;20316;-70
2023/05/29 13:10:47;;;;;;;4.73;3.20;;;27.30;41.20;;;;;;10606532;27;20296;-70
2023/05/29 13:15:47;;;;;;;3.80;3.20;;;27.20;42.10;;;;;;10596354;27;20224;-71
2023/05/29 13:20:48;;;;;;;6.17;3.30;;;27.10;42.80;;;;;;10584328;27;20232;-72
2023/05/29 13:25:49;;;;;;;5.10;3.10;;;27.10;42.70;;;;;;10601188;27;20316;-72
2023/05/29 13:30:50;;;;;;;4.57;3.30;;;27.20;43.20;;;;;;10581054;27;20312;-70
2023/05/29 13:35:50;;;;;;;6.00;3.47;;;26.90;43.70;;;;;;10582676;27;20299;-71
2023/05/29 13:40:51;;;;;;;5.00;3.40;;;26.90;44.10;;;;;;10600120;27;20266;-71
2023/05/29 13:45:51;;;;;;;6.43;3.70;;;27.10;44.00;;;;;;10594240;27;20327;-71
2023/05/29 13:50:52;;;;;;;4.07;3.17;;;27.30;43.70;;;;;;10570647;27;20346;-71
2023/05/29 13:55:53;;;;;;;5.47;3.40;;;27.40;43.20;;;;;;10580338;27;20221;-71
2023/05/29 14:00:54;;;;;;;4.17;2.97;;;27.10;43.90;;;;;;10587550;27;20730;-71
2023/05/29 14:05:55;;;;;;;5.13;3.33;;;27.00;44.70;;;;;;10603495;27;20784;-70
2023/05/29 14:10:55;;;;;;;7.13;3.77;;;27.20;44.60;;;;;;10582707;27;20298;-70
2023/05/29 14:15:56;;;;;;;4.80;3.43;;;27.10;44.50;;;;;;10582282;27;20224;-72
2023/05/29 14:20:57;;;;;;;5.17;3.23;;;27.10;44.40;;;;;;10578085;27;20312;-72
2023/05/29 14:26:01;;;;;;;5.93;3.57;;;27.00;45.30;;;;;;10580261;27;20779;-72
2023/05/29 14:31:02;;;;;;;6.03;3.30;;;26.90;45.00;;;;;;10589419;27;20614;-72
2023/05/29 14:36:03;;;;;;;4.87;3.53;;;26.90;44.80;;;;;;10599526;27;20240;-71
2023/05/29 14:41:04;;;;;;;6.33;3.60;;;26.90;44.50;;;;;;10600302;27;20221;-72
2023/05/29 14:46:04;;;;;;;5.37;3.40;;;26.80;44.80;;;;;;10593207;27;20229;-72
2023/05/29 14:51:05;;;;;;;4.53;3.27;;;26.90;45.00;;;;;;10581916;27;20237;-70
2023/05/29 14:56:06;;;;;;;4.50;3.43;;;26.90;45.20;;;;;;10561945;27;20687;-71
2023/05/29 15:01:07;;;;;;;8.17;4.50;;;26.90;44.60;;;;;;10567411;27;20236;-70
2023/05/29 15:06:11;;;;;;;7.53;3.37;;;26.70;44.70;;;;;;10576508;27;20237;-72
2023/05/29 15:11:16;;;;;;;6.70;3.80;;;26.70;45.00;;;;;;10582395;27;20217;-71
2023/05/29 15:16:17;;;;;;;6.77;3.93;;;26.90;44.60;;;;;;10592611;27;20252;-72
2023/05/29 15:21:17;;;;;;;9.13;3.90;;;27.00;44.10;;;;;;10600738;27;20614;-71
2023/05/29 15:26:18;;;;;;;4.33;3.67;;;26.90;43.90;;;;;;10602216;27;20217;-71
2023/05/29 15:31:19;;;;;;;5.63;4.03;;;26.90;45.30;;;;;;10573671;27;20307;-70
2023/05/29 15:36:22;;;;;;;4.33;3.60;;;26.70;44.90;;;;;;10580958;27;20223;-72
2023/05/29 15:41:28;;;;;;;5.23;3.73;;;26.70;45.70;;;;;;10592769;27;20274;-71
2023/05/29 15:46:29;;;;;;;6.40;3.73;;;26.30;45.00;;;;;;10595393;27;20225;-71
2023/05/29 15:51:30;;;;;;;6.27;3.70;;;26.20;45.60;;;;;;10592588;27;20249;-72
2023/05/29 15:56:31;;;;;;;7.00;3.70;;;26.30;46.10;;;;;;10580506;27;20824;-70
2023/05/29 16:01:31;;;;;;;7.30;4.53;;;26.20;47.30;;;;;;10591820;27;20759;-72
2023/05/29 16:06:36;;;;;;;5.83;3.77;;;26.20;48.90;;;;;;10579837;28;20225;-72
2023/05/29 16:11:37;;;;;;;7.10;4.13;;;26.00;48.20;;;;;;10584117;28;20661;-75
2023/05/29 16:16:37;;;;;;;6.37;3.80;;;25.90;50.50;;;;;;10580990;28;20229;-74
2023/05/29 16:21:39;;;;;;;7.30;3.60;;;25.70;52.10;;;;;;10585333;27;20237;-74
2023/05/29 16:26:39;;;;;;;9.70;3.97;;;25.70;52.00;;;;;;10618307;27;20228;-75
2023/05/29 16:31:40;;;;;;;5.27;3.53;;;25.40;53.40;;;;;;10604348;27;20227;-74
2023/05/29 16:36:41;;;;;;;7.07;3.47;;;25.40;54.00;;;;;;10584390;27;20220;-75
2023/05/29 16:41:44;;;;;;;6.63;3.40;;;25.30;53.70;;;;;;10585699;27;20206;-75
2023/05/29 16:46:45;;;;;;;6.13;3.70;;;25.10;54.70;;;;;;10606139;27;20221;-73
2023/05/29 16:51:46;;;;;;;5.23;3.50;;;25.00;55.20;;;;;;10606419;27;20300;-75
2023/05/29 16:56:46;;;;;;;7.23;3.47;;;24.90;55.60;;;;;;10603227;27;20224;-74
2023/05/29 17:01:47;;;;;;;8.53;3.73;;;24.70;56.50;;;;;;10602651;27;20304;-75
2023/05/29 17:06:47;;;;;;;6.23;3.83;;;24.60;56.50;;;;;;10593044;27;20232;-74
2023/05/29 17:11:49;;;;;;;5.83;3.53;;;24.50;56.80;;;;;;10606068;27;20292;-74
2023/05/29 17:16:50;;;;;;;5.27;3.70;;;24.40;57.30;;;;;;10600686;27;20644;-74
2023/05/29 17:21:51;;;;;;;9.60;3.77;;;24.30;57.70;;;;;;10587154;27;20738;-76
2023/05/29 17:26:52;;;;;;;6.63;3.97;;;24.20;57.90;;;;;;10599400;27;20225;-74
2023/05/29 17:31:55;;;;;;;6.17;3.40;;;24.10;58.50;;;;;;10602067;27;20346;-74
2023/05/29 17:36:56;;;;;;;6.53;3.87;;;24.10;58.80;;;;;;10587123;27;20224;-74
2023/05/29 17:41:57;;;;;;;7.73;3.50;;;24.10;58.90;;;;;;10601543;27;20217;-74
2023/05/29 17:46:58;;;;;;;7.87;3.70;;;24.00;59.50;;;;;;10585327;27;20226;-74
2023/05/29 17:51:59;;;;;;;5.67;3.30;;;23.80;59.50;;;;;;10566949;27;20220;-74
2023/05/29 17:57:01;;;;;;;6.33;3.80;;;23.60;60.00;;;;;;10601750;27;20695;-74
2023/05/29 18:02:02;;;;;;;7.50;3.43;;;23.50;60.90;;;;;;10576214;27;20210;-74
2023/05/29 18:07:04;;;;;;;5.60;3.80;;;23.40;61.10;;;;;;10603373;27;20224;-73
2023/05/29 18:12:05;;;;;;;6.63;3.63;;;23.20;61.60;;;;;;10578806;27;20225;-74
2023/05/29 18:17:06;;;;;;;7.43;3.80;;;23.10;62.40;;;;;;10586048;27;20214;-74
2023/05/29 18:22:07;;;;;;;9.03;3.47;;;23.00;62.70;;;;;;10602263;27;20310;-75
2023/05/29 18:27:07;;;;;;;9.37;3.83;;;22.80;63.20;;;;;;10582540;27;20312;-73
2023/05/29 18:32:08;;;;;;;6.80;3.83;;;22.60;64.20;;;;;;10596864;27;20285;-74
2023/05/29 18:37:09;;;;;;;8.53;4.07;;;22.60;64.80;;;;;;10608355;27;20213;-74
2023/05/29 18:42:09;;;;;;;8.23;3.87;;;22.40;65.20;;;;;;10576466;27;20255;-74
2023/05/29 18:47:12;;;;;;;9.43;3.67;;;22.30;65.90;;;;;;10600867;27;20216;-74
2023/05/29 18:52:13;;;;;;;7.90;4.13;;;22.20;66.50;;;;;;10580761;27;20575;-74
2023/05/29 18:57:14;;;;;;;5.90;3.10;;;22.00;67.20;;;;;;10600964;27;20224;-75
2023/05/29 19:02:14;;;;;;;8.20;3.80;;;21.90;67.80;;;;;;10574508;27;20218;-73
2023/05/29 19:07:15;;;;;;;7.37;3.63;;;21.80;68.40;;;;;;10599228;27;20237;-74
2023/05/29 19:12:16;;;;;;;7.83;3.90;;;21.60;69.00;;;;;;10574163;27;20776;-73
2023/05/29 19:17:17;;;;;;;6.77;3.90;;;21.50;69.70;;;;;;10581661;27;20740;-75
2023/05/29 19:22:18;;;;;;;7.63;3.47;;;21.30;69.70;;;;;;10581603;27;20221;-75
2023/05/29 19:27:18;;;;;;;8.53;3.80;;;21.20;70.00;;;;;;10599429;27;20266;-75
2023/05/29 19:32:21;;;;;;;9.83;4.00;;;21.00;70.30;;;;;;10575751;27;20221;-75
2023/05/29 19:37:22;;;;;;;8.13;3.87;;;20.90;70.60;;;;;;10598420;27;20236;-74
2023/05/29 19:42:26;;;;;;;7.20;3.80;;;20.80;71.00;;;;;;10592225;27;20345;-75
2023/05/29 19:47:28;;;;;;;9.93;3.97;;;20.70;71.20;;;;;;10593094;27;20226;-75
2023/05/29 19:52:29;;;;;;;8.90;3.90;;;20.60;71.30;;;;;;10609187;27;20270;-74
2023/05/29 19:57:30;;;;;;;8.10;3.50;;;20.50;71.30;;;;;;10573161;27;20737;-75
2023/05/29 20:02:36;;;;;;;8.97;3.77;;;20.40;71.80;;;;;;10580066;27;20223;-74
2023/05/29 20:07:36;;;;;;;7.50;3.60;;;20.30;71.80;;;;;;10575457;28;20273;-73
2023/05/29 20:12:37;;;;;;;7.43;3.43;;;20.20;72.20;;;;;;10601616;28;20250;-73
2023/05/29 20:17:40;;;;;;;9.00;3.80;;;20.10;72.30;;;;;;10597702;28;20261;-73
2023/05/29 20:22:41;;;;;;;9.70;3.90;;;20.00;72.80;;;;;;10577722;28;20286;-75
2023/05/29 20:27:42;;;;;;;6.90;3.40;;;19.90;73.20;;;;;;10575189;28;20236;-74
2023/05/29 20:32:43;;;;;;;7.63;3.27;;;19.80;73.50;;;;;;10596005;28;20225;-74
2023/05/29 20:37:43;;;;;;;6.90;3.77;;;19.70;73.80;;;;;;10598267;28;20232;-74
2023/05/29 20:42:45;;;;;;;8.57;3.43;;;19.60;73.90;;;;;;10603563;28;20775;-74
2023/05/29 20:47:46;;;;;;;8.70;3.50;;;19.60;74.30;;;;;;10575238;28;20283;-74
2023/05/29 20:52:46;;;;;;;8.30;3.57;;;19.40;74.10;;;;;;10575745;28;20769;-73
2023/05/29 20:57:47;;;;;;;7.37;3.47;;;19.30;74.20;;;;;;10570900;28;20270;-75
2023/05/29 21:02:48;;;;;;;9.50;3.87;;;19.20;74.50;;;;;;10592184;28;20294;-74
2023/05/29 21:07:50;;;;;;;7.70;3.63;;;19.20;74.60;;;;;;10574012;27;20255;-74
2023/05/29 21:12:51;;;;;;;5.37;3.63;;;19.10;74.60;;;;;;10582808;27;20213;-74
2023/05/29 21:17:51;;;;;;;7.67;3.40;;;19.00;75.00;;;;;;10607328;27;20221;-74
2023/05/29 21:22:52;;;;;;;8.50;3.47;;;18.90;75.10;;;;;;10598724;27;20701;-74
2023/05/29 21:27:53;;;;;;;7.90;3.50;;;18.90;75.40;;;;;;10577626;27;20225;-74
2023/05/29 21:32:53;;;;;;;5.67;3.30;;;18.70;75.60;;;;;;10586741;27;20300;-73
2023/05/29 21:37:54;;;;;;;9.27;3.20;;;18.60;75.60;;;;;;10598733;27;20382;-75
2023/05/29 21:42:55;;;;;;;6.20;3.07;;;18.50;76.00;;;;;;10582385;27;20219;-74
2023/05/29 21:47:56;;;;;;;7.67;3.20;;;18.50;76.20;;;;;;10599506;27;20213;-74
2023/05/29 21:52:57;;;;;;;7.70;3.10;;;18.40;76.40;;;;;;10577736;27;20243;-74
2023/05/29 21:57:58;;;;;;;8.07;3.10;;;18.30;76.50;;;;;;10601220;27;20224;-73
2023/05/29 22:02:58;;;;;;;6.23;3.43;;;18.30;76.70;;;;;;10579473;27;20221;-73
2023/05/29 22:07:59;;;;;;;6.57;3.50;;;18.20;77.10;;;;;;10581871;27;20209;-73
2023/05/29 22:13:03;;;;;;;9.53;3.37;;;18.10;78.10;;;;;;10604248;27;20226;-74
2023/05/29 22:18:04;;;;;;;7.23;3.27;;;18.00;77.50;;;;;;10585169;27;20244;-73
2023/05/29 22:23:05;;;;;;;4.60;3.13;;;17.90;77.80;;;;;;10595269;27;20217;-73
2023/05/29 22:28:05;;;;;;;7.77;3.37;;;17.80;78.00;;;;;;10590806;27;20221;-73
2023/05/29 22:33:06;;;;;;;6.90;3.20;;;17.70;78.20;;;;;;10576254;27;20592;-74
2023/05/29 22:38:07;;;;;;;6.70;3.13;;;17.70;78.20;;;;;;10606445;27;20240;-74
2023/05/29 22:43:08;;;;;;;6.80;3.17;;;17.60;78.60;;;;;;10577749;27;20218;-73
2023/05/29 22:48:08;;;;;;;5.83;3.03;;;17.50;78.40;;;;;;10595338;27;20225;-74
2023/05/29 22:53:09;;;;;;;6.00;3.13;;;17.40;78.60;;;;;;10606557;27;20277;-74
2023/05/29 22:58:10;;;;;;;6.80;3.10;;;17.30;78.90;;;;;;10599514;27;20220;-74
2023/05/29 23:03:10;;;;;;;4.90;2.63;;;17.30;79.20;;;;;;10600965;27;20213;-74
2023/05/29 23:08:11;;;;;;;7.77;3.47;;;17.20;79.10;;;;;;10573866;27;20663;-73
2023/05/29 23:13:11;;;;;;;5.87;2.73;;;17.20;79.10;;;;;;10583173;27;20214;-73
2023/05/29 23:18:12;;;;;;;7.73;3.47;;;17.10;79.50;;;;;;10593069;27;20221;-75
2023/05/29 23:23:13;;;;;;;8.43;3.53;;;17.00;79.60;;;;;;10581639;27;20228;-74
2023/05/29 23:28:14;;;;;;;6.80;2.90;;;17.00;79.80;;;;;;10573414;27;20355;-74
2023/05/29 23:33:14;;;;;;;7.20;3.00;;;16.90;79.70;;;;;;10573406;27;20243;-74
2023/05/29 23:38:15;;;;;;;6.47;3.00;;;16.80;80.00;;;;;;10599871;27;20236;-73
2023/05/29 23:43:16;;;;;;;7.63;2.93;;;16.80;80.10;;;;;;10593506;27;20729;-73
2023/05/29 23:48:16;;;;;;;10.10;3.00;;;16.70;80.10;;;;;;10582758;27;20627;-74
2023/05/29 23:53:17;;;;;;;8.83;2.93;;;16.60;80.10;;;;;;10582193;27;20216;-73
2023/05/29 23:58:18;;;;;;;5.30;3.00;;;16.50;80.20;;;;;;10572216;27;20235;-74
